Time;durP1;ratioP1;P1;durP2;ratioP2;P2;SDS_P1;SDS_P2;PMS_P1;PMS_P2;Temp;Humidity;BMP_temperature;BMP_pressure;BME280_temperature;BME280_humidity;BME280_pressure;Samples;Min_cycle;Max_cycle;Signal;HPM_P1;HPM_P2
2022/03/26 00:00:08;;;;;;;;;;;;;;;9.13;60.29;102363.22;15498468;28;20062;-61
2022/03/26 00:07:41;;;;;;;1999.90;999.90;;;;;;;8.93;60.68;102358.53;15498459;28;19928;-61
2022/03/26 00:15:15;;;;;;;1999.90;999.90;;;;;;;8.92;60.76;102368.00;15496466;28;20565;-62
2022/03/26 00:22:48;;;;;;;1999.90;999.90;;;;;;;8.55;61.93;102360.84;15492865;28;20472;-61
2022/03/26 00:30:20;;;;;;;1999.90;999.90;;;;;;;8.55;62.04;102360.84;15485513;28;20044;-59
2022/03/26 00:37:54;;;;;;;1999.90;999.90;;;;;;;8.40;62.32;102363.63;15491960;28;20042;-62
2022/03/26 00:45:30;;;;;;;1999.90;999.90;;;;;;;8.43;62.27;102357.47;15498226;28;20046;-61
2022/03/26 00:53:03;;;;;;;1999.90;999.90;;;;;;;8.38;62.66;102354.72;15478818;28;20542;-60
2022/03/26 01:00:35;;;;;;;1999.90;999.90;;;;;;;8.26;62.88;102356.91;15455621;28;20096;-61
2022/03/26 01:08:09;;;;;;;1999.90;999.90;;;;;;;8.33;62.60;102343.53;15492936;28;20153;-60
2022/03/26 01:15:42;;;;;;;1999.90;999.90;;;;;;;8.25;62.87;102338.56;15453926;28;20146;-61
2022/03/26 01:23:19;;;;;;;1999.90;999.90;;;;;;;8.19;63.15;102345.22;15466001;28;20047;-60
2022/03/26 01:30:54;;;;;;;1999.90;999.90;;;;;;;8.11;63.18;102338.25;15453841;28;20050;-61
2022/03/26 01:38:35;;;;;;;1999.90;999.90;;;;;;;8.05;63.84;102326.31;15452989;28;20141;-61
2022/03/26 01:46:11;;;;;;;1999.90;999.90;;;;;;;8.08;63.44;102322.13;15423613;23;20059;-59
2022/03/26 01:53:51;;;;;;;1999.90;999.90;;;;;;;8.03;63.77;102322.97;15376664;28;20126;-58
2022/03/26 02:01:27;;;;;;;1999.90;999.90;;;;;;;8.01;63.56;102321.56;15437048;28;20371;-59
2022/03/26 02:09:06;;;;;;;1999.90;999.90;;;;;;;7.99;63.45;102319.06;15437776;28;20047;-56
2022/03/26 02:16:55;;;;;;;1999.90;999.90;;;;;;;8.05;63.88;102322.69;15453370;28;20128;-59
2022/03/26 02:24:29;;;;;;;1999.90;999.90;;;;;;;8.10;63.41;102315.19;15442018;28;20065;-58
2022/03/26 02:32:01;;;;;;;1999.90;999.90;;;;;;;8.05;63.65;102297.69;15435594;28;20042;-57
2022/03/26 02:39:35;;;;;;;1999.90;999.90;;;;;;;8.14;63.55;102300.75;15451071;28;20160;-58
2022/03/26 02:47:08;;;;;;;1999.90;999.90;;;;;;;7.90;64.24;102303.22;15432278;28;20112;-58
2022/03/26 02:54:42;;;;;;;1999.90;999.90;;;;;;;7.84;64.07;102310.72;15458406;28;20128;-59
2022/03/26 03:02:15;;;;;;;;;;;;;;;8.02;64.48;102295.44;15433945;28;20066;-60
2022/03/26 03:09:49;;;;;;;;;;;;;;;8.11;64.57;102288.22;15432177;28;20256;-60
2022/03/26 03:17:21;;;;;;;1999.90;999.90;;;;;;;8.06;64.23;102293.78;15432195;28;19952;-60
2022/03/26 03:24:55;;;;;;;1999.90;999.90;;;;;;;8.14;63.96;102284.88;15432944;28;20135;-57
2022/03/26 03:32:27;;;;;;;1999.90;999.90;;;;;;;8.09;64.24;102296.00;15431972;28;20047;-58
2022/03/26 03:40:00;;;;;;;1999.90;999.90;;;;;;;8.02;64.63;102289.88;15432596;28;20479;-58
2022/03/26 03:47:37;;;;;;;1999.90;999.90;;;;;;;8.08;64.96;102291.56;15429945;28;20062;-60
2022/03/26 03:55:11;;;;;;;1999.90;999.90;;;;;;;8.14;65.24;102275.72;15389086;28;20143;-57
2022/03/26 04:02:44;;;;;;;1999.90;999.90;;;;;;;8.09;65.95;102288.50;15412671;28;20086;-59
2022/03/26 04:10:18;;;;;;;1999.90;999.90;;;;;;;8.19;66.75;102286.81;15430736;28;20424;-59
2022/03/26 04:17:52;;;;;;;;;;;;;;;8.45;66.08;102296.84;15434723;28;20514;-58
2022/03/26 04:25:25;;;;;;;1999.90;999.90;;;;;;;8.27;66.53;102302.97;15451496;28;19922;-59
2022/03/26 04:32:57;;;;;;;;;;;;;;;8.38;66.55;102307.44;15452860;28;20074;-59
2022/03/26 04:40:34;;;;;;;1999.90;999.90;;;;;;;8.26;67.04;102295.72;15451660;28;20405;-57
2022/03/26 04:48:07;;;;;;;1999.90;999.90;;;;;;;8.36;66.20;102298.53;15428116;28;20138;-57
2022/03/26 04:55:40;;;;;;;1999.90;999.90;;;;;;;8.27;66.43;102297.41;15435156;28;20132;-60
2022/03/26 05:03:12;;;;;;;1999.90;999.90;;;;;;;8.39;66.09;102297.97;15424514;28;20051;-59
2022/03/26 05:10:46;;;;;;;1999.90;999.90;;;;;;;8.59;65.58;102300.72;15426120;28;20047;-58
2022/03/26 05:18:18;;;;;;;;;;;;;;;8.63;65.47;102310.16;15425814;28;20051;-60
2022/03/26 05:25:55;;;;;;;1999.90;999.90;;;;;;;8.48;66.03;102326.06;15391789;28;20014;-59
2022/03/26 05:33:28;;;;;;;1999.90;999.90;;;;;;;8.81;65.01;102316.25;15448277;28;20051;-60
2022/03/26 05:41:01;;;;;;;1999.90;999.90;;;;;;;8.78;65.83;102311.25;15436887;28;20193;-59
2022/03/26 05:48:33;;;;;;;1999.90;999.90;;;;;;;8.85;65.45;102304.25;15435387;28;20463;-61
2022/03/26 05:56:07;;;;;;;1999.90;999.90;;;;;;;9.52;64.06;102305.66;15433535;28;20618;-60
2022/03/26 06:03:39;;;;;;;1999.90;999.90;;;;;;;9.80;63.17;102311.63;15434327;28;20043;-59
2022/03/26 06:11:13;;;;;;;1999.90;999.90;;;;;;;9.53;63.92;102307.31;15433939;28;20047;-58
2022/03/26 06:18:45;;;;;;;1999.90;999.90;;;;;;;10.02;63.02;102320.38;15396061;28;20035;-60
2022/03/26 06:26:18;;;;;;;1999.90;999.90;;;;;;;10.14;62.38;102322.78;15420757;28;20051;-58
2022/03/26 06:33:51;;;;;;;;;;;;;;;11.02;60.45;102323.63;15441711;28;20198;-60
2022/03/26 06:41:24;;;;;;;1999.90;999.90;;;;;;;11.95;58.27;102320.13;15436886;28;20318;-59
2022/03/26 06:48:56;;;;;;;1999.90;999.90;;;;;;;12.56;55.25;102318.28;15431923;28;20117;-59
2022/03/26 06:56:30;;;;;;;1999.90;999.90;;;;;;;12.96;55.35;102316.69;15431815;28;20046;-58
2022/03/26 07:04:04;;;;;;;1999.90;999.90;;;;;;;13.65;53.31;102299.81;15415644;28;20066;-58
2022/03/26 07:11:43;;;;;;;1999.90;999.90;;;;;;;13.21;54.37;102309.75;15430531;28;20046;-59
2022/03/26 07:19:15;;;;;;;1999.90;999.90;;;;;;;14.49;51.20;102314.06;15443880;28;20096;-59
2022/03/26 07:26:49;;;;;;;1999.90;999.90;;;;;;;15.11;50.51;102322.47;15430174;28;20157;-59
2022/03/26 07:34:22;;;;;;;;;;;;;;;15.36;48.85;102328.50;15432355;28;20089;-59
2022/03/26 07:41:56;;;;;;;1999.90;999.90;;;;;;;15.86;48.18;102334.56;15443340;22;19964;-61
2022/03/26 07:49:29;;;;;;;1999.90;999.90;;;;;;;16.29;46.21;102333.72;15461075;28;20058;-61
2022/03/26 07:57:02;;;;;;;1999.90;999.90;;;;;;;16.32;46.96;102333.88;15351780;28;20090;-61
2022/03/26 08:04:35;;;;;;;1999.90;999.90;;;;;;;16.83;45.94;102328.50;15384102;28;20050;-61
2022/03/26 08:12:10;;;;;;;1999.90;999.90;;;;;;;17.93;43.39;102323.78;15406433;28;20047;-60
2022/03/26 08:19:42;;;;;;;1999.90;999.90;;;;;;;18.22;43.62;102322.84;15364736;28;20047;-62
2022/03/26 08:27:16;;;;;;;1999.90;999.90;;;;;;;18.35;43.10;102327.38;15406580;28;20053;-60
2022/03/26 08:34:48;;;;;;;1999.90;999.90;;;;;;;19.41;41.77;102329.47;15394037;28;20050;-62
2022/03/26 08:42:21;;;;;;;1999.90;999.90;;;;;;;20.24;39.91;102334.50;15406132;28;20079;-62
2022/03/26 08:49:55;;;;;;;1999.90;999.90;;;;;;;19.26;40.24;102328.97;15379978;28;20078;-64
2022/03/26 08:57:29;;;;;;;1999.90;999.90;;;;;;;20.20;39.70;102330.72;15373155;28;20412;-62
2022/03/26 09:05:01;;;;;;;1999.90;999.90;;;;;;;20.39;41.22;102333.72;15387030;28;20036;-62
2022/03/26 09:12:37;;;;;;;1999.90;999.90;;;;;;;20.70;38.88;102338.66;15358850;28;20046;-60
2022/03/26 09:20:11;;;;;;;1999.90;999.90;;;;;;;20.95;38.80;102345.03;15377771;28;20138;-61
2022/03/26 09:27:46;;;;;;;1999.90;999.90;;;;;;;21.03;38.72;102343.19;15384822;28;20073;-61
2022/03/26 09:35:18;;;;;;;1999.90;999.90;;;;;;;21.08;38.27;102344.94;15357301;28;20051;-64
2022/03/26 09:42:53;;;;;;;1999.90;999.90;;;;;;;20.90;38.66;102339.59;15425944;28;20039;-62
2022/03/26 09:50:28;;;;;;;1999.90;999.90;;;;;;;22.17;37.23;102343.09;15367969;28;20098;-61
2022/03/26 09:58:01;;;;;;;1999.90;999.90;;;;;;;22.33;37.82;102340.19;15398693;28;20077;-61
2022/03/26 10:05:35;;;;;;;1999.90;999.90;;;;;;;21.83;38.70;102337.06;15383973;28;20125;-61
2022/03/26 10:13:08;;;;;;;1999.90;999.90;;;;;;;19.53;42.24;102327.44;15361113;28;20386;-60
2022/03/26 10:20:41;;;;;;;1999.90;999.90;;;;;;;19.16;43.20;102323.78;15370858;28;20043;-61
2022/03/26 10:28:23;;;;;;;1999.90;999.90;;;;;;;18.79;44.18;102325.78;15370134;28;20141;-62
2022/03/26 10:35:57;;;;;;;1999.90;999.90;;;;;;;18.59;45.09;102318.97;15395172;28;20085;-62
2022/03/26 10:43:30;;;;;;;1999.90;999.90;;;;;;;19.59;43.34;102319.56;15391187;28;20361;-62
2022/03/26 10:51:06;;;;;;;1999.90;999.90;;;;;;;19.08;44.48;102326.75;15420786;28;20043;-60
2022/03/26 10:58:42;;;;;;;1999.90;999.90;;;;;;;18.84;44.64;102327.53;15383228;28;20050;-60
2022/03/26 11:06:17;;;;;;;1999.90;999.90;;;;;;;19.07;44.95;102325.09;15364167;28;20049;-58
2022/03/26 11:13:54;;;;;;;1999.90;999.90;;;;;;;19.13;45.24;102335.00;15349405;28;20469;-60
2022/03/26 11:21:40;;;;;;;1999.90;999.90;;;;;;;19.43;44.36;102327.94;15399265;28;20043;-59
2022/03/26 11:29:45;;;;;;;1999.90;999.90;;;;;;;21.85;41.14;102333.84;15384842;28;20039;-61
2022/03/26 11:37:22;;;;;;;1999.90;999.90;;;;;;;23.35;38.13;102314.84;15394705;28;20046;-60
2022/03/26 11:53:06;;;;;;;;;;;;;;;21.80;40.51;102317.09;15320437;28;20564;-61
2022/03/26 12:00:53;;;;;;;1999.90;999.90;;;;;;;20.33;43.33;102312.50;15387213;28;19993;-64
2022/03/26 12:08:39;;;;;;;1999.90;999.90;;;;;;;20.47;43.37;102303.59;15361093;28;20047;-61
2022/03/26 12:16:14;;;;;;;1999.90;999.90;;;;;;;20.81;43.30;102285.06;15376662;29;20051;-61
2022/03/26 12:23:47;;;;;;;1999.90;999.90;;;;;;;20.22;43.64;102293.50;15375988;29;20086;-61
2022/03/26 12:31:24;;;;;;;1999.90;999.90;;;;;;;19.70;45.26;102300.09;15375515;29;20731;-59
2022/03/26 12:38:57;;;;;;;1999.90;999.90;;;;;;;18.99;46.74;102285.25;15364427;28;20516;-62
2022/03/26 12:46:36;;;;;;;1999.90;999.90;;;;;;;18.77;47.35;102282.88;15357565;28;20047;-60
2022/03/26 12:54:08;;;;;;;1999.90;999.90;;;;;;;19.16;47.06;102278.50;15359787;29;20055;-59
2022/03/26 13:01:43;;;;;;;1999.90;999.90;;;;;;;18.86;47.93;102283.59;15363551;29;20531;-60
2022/03/26 13:09:16;;;;;;;1999.90;999.90;;;;;;;18.51;49.36;102291.63;15365113;29;20077;-60
2022/03/26 13:16:52;;;;;;;1999.90;999.90;;;;;;;17.87;51.24;102294.91;15372048;29;20051;-61
2022/03/26 13:24:30;;;;;;;1999.90;999.90;;;;;;;17.65;51.96;102298.84;15370343;29;20047;-58
2022/03/26 13:32:09;;;;;;;1999.90;999.90;;;;;;;18.10;51.11;102307.47;15362714;29;20423;-59
2022/03/26 13:39:45;;;;;;;1999.90;999.90;;;;;;;17.21;53.54;102317.22;15361583;29;20086;-60
2022/03/26 13:47:20;;;;;;;1999.90;999.90;;;;;;;17.12;53.16;102327.72;15374128;28;20047;-56
2022/03/26 13:54:52;;;;;;;1999.90;999.90;;;;;;;16.98;54.39;102330.75;15349594;29;20566;-54
2022/03/26 14:02:27;;;;;;;1999.90;999.90;;;;;;;16.55;54.94;102320.41;15372642;29;20047;-59
2022/03/26 14:09:59;;;;;;;1999.90;999.90;;;;;;;16.39;55.53;102330.56;15372992;29;20059;-55
2022/03/26 14:17:32;;;;;;;1999.90;999.90;;;;;;;15.98;56.65;102329.09;15373704;29;20051;-58
2022/03/26 14:25:05;;;;;;;;;;;;;;;15.76;57.69;102335.72;15383956;29;20047;-57
2022/03/26 14:32:40;;;;;;;1999.90;999.90;;;;;;;15.53;58.59;102326.56;15381677;29;20010;-58
2022/03/26 14:40:16;;;;;;;1999.90;999.90;;;;;;;15.83;57.46;102332.41;15381147;29;20048;-58
2022/03/26 14:47:50;;;;;;;1999.90;999.90;;;;;;;16.44;55.90;102336.84;15380500;29;20075;-59
2022/03/26 14:55:26;;;;;;;1999.90;999.90;;;;;;;15.77;57.48;102330.91;15380885;28;20054;-58
2022/03/26 15:03:01;;;;;;;1999.90;999.90;;;;;;;16.23;55.85;102333.06;15370344;29;20480;-57
2022/03/26 15:10:34;;;;;;;1999.90;999.90;;;;;;;16.42;55.75;102343.97;15378451;29;20052;-57
2022/03/26 15:18:07;;;;;;;1999.90;999.90;;;;;;;16.45;55.14;102349.78;15379431;29;20110;-58
2022/03/26 15:25:40;;;;;;;1999.90;999.90;;;;;;;16.09;56.42;102336.06;15377979;29;20098;-58
2022/03/26 15:33:14;;;;;;;1999.90;999.90;;;;;;;15.94;56.82;102346.97;15377682;29;20043;-60
2022/03/26 15:40:46;;;;;;;1999.90;999.90;;;;;;;16.17;56.42;102338.06;15377487;28;20043;-57
2022/03/26 15:48:19;;;;;;;1999.90;999.90;;;;;;;16.40;55.52;102338.69;15376547;29;20074;-60
2022/03/26 15:55:51;;;;;;;;;;;;;;;15.89;56.64;102350.78;15360376;29;20126;-59
2022/03/26 16:03:26;;;;;;;1999.90;999.90;;;;;;;15.77;56.84;102348.63;15376678;29;19929;-59
2022/03/26 16:10:58;;;;;;;1999.90;999.90;;;;;;;15.62;57.37;102362.34;15358563;28;20078;-59
2022/03/26 16:18:31;;;;;;;1999.90;999.90;;;;;;;15.98;56.27;102354.44;15376047;29;20043;-57
2022/03/26 16:26:05;;;;;;;1999.90;999.90;;;;;;;15.63;57.07;102367.66;15373978;29;20094;-59
2022/03/26 16:33:38;;;;;;;1999.90;999.90;;;;;;;15.74;56.91;102371.00;15363751;28;20395;-58
2022/03/26 16:41:10;;;;;;;;;;;;;;;15.66;57.27;102368.97;15331767;29;20056;-60
2022/03/26 16:48:45;;;;;;;1999.90;999.90;;;;;;;15.49;57.45;102373.34;15347854;29;20384;-56
2022/03/26 16:56:17;;;;;;;1999.90;999.90;;;;;;;15.18;58.56;102373.41;15346367;29;20082;-59
2022/03/26 17:03:53;;;;;;;1999.90;999.90;;;;;;;15.04;59.44;102386.75;15349736;29;20047;-59
2022/03/26 17:11:26;;;;;;;;;;;;;;;14.81;60.15;102379.53;15340037;29;20107;-59
2022/03/26 17:19:00;;;;;;;1999.90;999.90;;;;;;;14.54;61.00;102389.75;15353689;29;19929;-58
2022/03/26 17:26:32;;;;;;;1999.90;999.90;;;;;;;14.78;60.15;102406.28;15345818;28;20133;-59
2022/03/26 17:34:07;;;;;;;1999.90;999.90;;;;;;;14.44;60.78;102404.03;15361458;29;20044;-57
2022/03/26 17:41:39;;;;;;;;;;;;;;;14.21;60.75;102410.78;15377704;29;20044;-59
2022/03/26 17:49:14;;;;;;;1999.90;999.90;;;;;;;14.35;60.56;102418.00;15384031;29;19985;-61
2022/03/26 17:56:46;;;;;;;1999.90;999.90;;;;;;;14.12;60.04;102428.38;15361001;28;20134;-59
2022/03/26 18:04:25;;;;;;;1999.90;999.90;;;;;;;13.77;59.82;102432.81;15363681;29;20432;-59
2022/03/26 18:12:10;;;;;;;1999.90;999.90;;;;;;;13.88;59.40;102450.25;15353255;29;20130;-59
2022/03/26 18:20:01;;;;;;;1999.90;999.90;;;;;;;14.04;58.82;102459.16;15344684;29;20044;-59
2022/03/26 18:27:53;;;;;;;1999.90;999.90;;;;;;;13.39;60.79;102474.25;15328645;29;20067;-57
2022/03/26 18:35:46;;;;;;;1999.90;999.90;;;;;;;13.01;61.12;102476.31;15325899;28;20054;-60
2022/03/26 18:43:25;;;;;;;1999.90;999.90;;;;;;;12.79;61.54;102490.97;15371463;29;20413;-59
2022/03/26 18:51:07;;;;;;;1999.90;999.90;;;;;;;12.65;61.76;102488.13;15368421;29;20047;-59
2022/03/26 18:58:58;;;;;;;1999.90;999.90;;;;;;;12.73;61.21;102499.78;15381284;29;20090;-59
2022/03/26 19:06:47;;;;;;;1999.90;999.90;;;;;;;12.56;61.09;102492.75;15380890;29;20090;-60
2022/03/26 19:14:31;;;;;;;1999.90;999.90;;;;;;;12.56;61.10;102509.53;15378747;29;20090;-60
2022/03/26 19:22:21;;;;;;;1999.90;999.90;;;;;;;12.39;61.77;102517.63;15362718;29;20055;-60
2022/03/26 19:30:14;;;;;;;1999.90;999.90;;;;;;;12.30;62.51;102523.09;15378944;29;20119;-61
2022/03/26 19:37:56;;;;;;;1999.90;999.90;;;;;;;12.23;63.03;102527.38;15371977;28;20039;-60
2022/03/26 19:45:47;;;;;;;1999.90;999.90;;;;;;;11.94;63.59;102552.66;15363141;28;20102;-57
2022/03/26 19:53:37;;;;;;;1999.90;999.90;;;;;;;11.66;63.55;102549.56;15347235;28;20054;-59
2022/03/26 20:01:20;;;;;;;1999.90;999.90;;;;;;;11.48;64.96;102553.13;15356446;29;20043;-59
2022/03/26 20:09:13;;;;;;;1999.90;999.90;;;;;;;11.41;65.08;102559.06;15366600;28;20047;-58
2022/03/26 20:24:58;;;;;;;1999.90;999.90;;;;;;;10.91;66.09;102571.50;15354434;29;20047;-63
2022/03/26 20:32:42;;;;;;;1999.90;999.90;;;;;;;10.84;66.26;102582.19;15373749;29;20126;-62
2022/03/26 20:40:30;;;;;;;1999.90;999.90;;;;;;;10.71;66.96;102580.84;15375212;29;20134;-61
2022/03/26 20:48:12;;;;;;;;;;;;;;;10.57;66.68;102579.81;15377154;29;20082;-64
2022/03/26 20:55:51;;;;;;;1999.90;999.90;;;;;;;10.34;66.58;102581.34;15378395;28;19993;-60
2022/03/26 21:03:24;;;;;;;1999.90;999.90;;;;;;;10.21;66.81;102585.53;15357559;28;20039;-62
2022/03/26 21:10:58;;;;;;;1999.90;999.90;;;;;;;9.96;67.66;102602.38;15378988;29;20378;-62
2022/03/26 21:18:33;;;;;;;1999.90;999.90;;;;;;;9.74;67.46;102597.97;15371020;29;20102;-60
2022/03/26 21:26:08;;;;;;;;;;;;;;;9.61;67.52;102612.50;15359565;29;20053;-60
2022/03/26 21:34:01;;;;;;;1999.90;999.90;;;;;;;9.42;67.65;102614.16;15359196;29;19986;-60
2022/03/26 21:41:53;;;;;;;1999.90;999.90;;;;;;;9.23;68.00;102620.28;15378434;29;20428;-61
2022/03/26 21:49:35;;;;;;;1999.90;999.90;;;;;;;9.05;68.35;102620.81;15379682;29;20416;-61
2022/03/26 21:57:28;;;;;;;1999.90;999.90;;;;;;;8.70;68.22;102621.59;15369140;29;20058;-59
2022/03/26 22:05:11;;;;;;;1999.90;999.90;;;;;;;8.51;70.67;102621.25;15370944;28;20089;-61
2022/03/26 22:13:04;;;;;;;1999.90;999.90;;;;;;;8.60;70.20;102622.41;15382079;29;20047;-62
2022/03/26 22:20:40;;;;;;;1999.90;999.90;;;;;;;8.58;69.47;102619.06;15365498;29;20043;-59
2022/03/26 22:28:19;;;;;;;1999.90;999.90;;;;;;;8.56;68.97;102629.66;15369881;29;20114;-60
2022/03/26 22:35:54;;;;;;;1999.90;999.90;;;;;;;8.32;69.54;102629.22;15380999;29;20608;-60
2022/03/26 22:43:30;;;;;;;1999.90;999.90;;;;;;;8.28;69.56;102630.06;15378478;29;20291;-61
2022/03/26 22:51:02;;;;;;;1999.90;999.90;;;;;;;8.18;69.22;102619.72;15380632;29;20481;-59
2022/03/26 22:58:37;;;;;;;1999.90;999.90;;;;;;;8.00;68.60;102634.06;15386418;29;20094;-59
2022/03/26 23:06:11;;;;;;;1999.90;999.90;;;;;;;7.79;69.63;102635.88;15377618;29;20485;-59
2022/03/26 23:13:45;;;;;;;1999.90;999.90;;;;;;;7.72;69.43;102650.03;15380748;29;20500;-62
2022/03/26 23:21:17;;;;;;;1999.90;999.90;;;;;;;7.56;69.81;102639.06;15380863;28;20468;-60
2022/03/26 23:28:51;;;;;;;1999.90;999.90;;;;;;;7.50;68.90;102644.59;15381368;29;20141;-60
2022/03/26 23:36:24;;;;;;;1999.90;999.90;;;;;;;7.52;69.01;102647.09;15380379;29;20055;-60
2022/03/26 23:43:57;;;;;;;1999.90;999.90;;;;;;;7.33;69.13;102637.50;15379529;28;20051;-60
2022/03/26 23:51:29;;;;;;;1999.90;999.90;;;;;;;7.24;68.67;102637.97;15379911;29;20489;-61
2022/03/26 23:59:03;;;;;;;1999.90;999.90;;;;;;;7.07;69.35;102639.19;15370198;29;20138;-61
